Blue Ridge Highway — 3FEY4 — position and weather

sailwx.info

Track history (hours):
 
Tides and Currents Weather Stations Pressure Air Temp Water Temp Dewpoint Dewpoint Depression Visibility Wind Speed Wind Dir Waves Ship Positions

Blue Ridge Highway

Last reported at 2016-Aug-17 23:07 UTC. Time now 2016-Aug-24 13:45 UTC.
Position S 34°18' E 017°58'.

Length 180 m; draft 8.1 m.

Type: Cargo ship. MMSI: 355558000.

Date/timePositionNaut miles runAvg speedWind from/ knotsBaromVisibWave heightAir tempDewpointWater temp
2016-Aug-17 23:07S 34°18' E 017°58'  
2016-Aug-15 00:20S 30°22' E 030°55'1215.2
2016-Aug-14 23:34S 30°12' E 031°01'1515.3
2016-Aug-14 22:34S 29°56' E 031°04'5 4.4
2016-Aug-14 21:32S 29°52' E 031°02'0 0.0
2016-Aug-14 20:32S 29°52' E 031°02'0 0.0
2016-Aug-14 19:32S 29°52' E 031°02'0 0.0
2016-Aug-14 18:32S 29°52' E 031°02'0 0.0
2016-Aug-14 17:32S 29°52' E 031°02'0 0.0
2016-Aug-14 16:32S 29°52' E 031°02'0 0.0
2016-Aug-14 15:32S 29°52' E 031°02'0 0.0
2016-Aug-14 14:32S 29°52' E 031°02'0 0.0
2016-Aug-14 13:32S 29°52' E 031°02'0 0.0
2016-Aug-14 12:32S 29°52' E 031°02'0 0.0
2016-Aug-14 11:32S 29°52' E 031°02'0 0.0
2016-Aug-14 10:32S 29°52' E 031°02'0 0.0
2016-Aug-14 09:32S 29°52' E 031°02'1 1.0
2016-Aug-14 08:34S 29°52' E 031°03'3 3.1
2016-Aug-14 07:33S 29°50' E 031°06'5 4.6
2016-Aug-14 06:34S 29°48' E 031°10'4 2.2
2016-Aug-14 04:34S 29°44' E 031°12'3 3.3
2016-Aug-14 03:32S 29°41' E 031°09'0 0.2
2016-Aug-14 02:32S 29°41' E 031°09'0 0.1
2016-Aug-14 01:32S 29°41' E 031°09'0 0.0
2016-Aug-14 00:32S 29°41' E 031°09'0 0.0
2016-Aug-13 23:32S 29°41' E 031°09'0 0.0
2016-Aug-13 22:32S 29°41' E 031°09'0 0.0
2016-Aug-13 21:32S 29°41' E 031°09'0 0.0
2016-Aug-13 20:32S 29°41' E 031°09'0 0.0
2016-Aug-13 19:32S 29°41' E 031°09'0 0.0
2016-Aug-13 18:32S 29°41' E 031°09'0 0.1
2016-Aug-13 17:32S 29°41' E 031°09'0 0.0
2016-Aug-13 11:32S 29°41' E 031°09'0 0.1
2016-Aug-13 10:32S 29°41' E 031°09'0 0.0
2016-Aug-13 09:29S 29°41' E 031°09'0 0.0
2016-Aug-13 08:32S 29°41' E 031°09'0 0.0
2016-Aug-13 07:29S 29°41' E 031°09'0 0.0
2016-Aug-13 06:32S 29°41' E 031°09'0 0.0
2016-Aug-13 05:29S 29°41' E 031°09'0 0.0
2016-Aug-13 04:29S 29°41' E 031°09'0 0.0
2016-Aug-13 03:29S 29°41' E 031°09'0 0.0
2016-Aug-13 02:29S 29°41' E 031°09'0 0.0
2016-Aug-13 01:29S 29°41' E 031°09'0 0.0
2016-Aug-13 00:29S 29°41' E 031°09'0 0.0
2016-Aug-12 23:29S 29°41' E 031°09'0 0.0
2016-Aug-12 22:23S 29°41' E 031°09'0 0.0
2016-Aug-12 21:29S 29°41' E 031°09'0 0.0
2016-Aug-12 20:29S 29°41' E 031°09'0 0.0
2016-Aug-12 19:29S 29°41' E 031°09'0 0.0
2016-Aug-12 18:29S 29°41' E 031°09'0 0.0
2016-Aug-12 17:29S 29°41' E 031°09'0 0.0
2016-Aug-12 16:32S 29°41' E 031°09'0 0.0
2016-Aug-12 08:29S 29°41' E 031°09'0 0.0
2016-Aug-12 07:29S 29°41' E 031°09'0 0.0
2016-Aug-12 06:29S 29°41' E 031°09'0 0.0
2016-Aug-12 05:23S 29°41' E 031°09'0 0.0
2016-Aug-12 04:29S 29°41' E 031°09'0 0.0
2016-Aug-12 03:32S 29°41' E 031°09'0 0.0
2016-Aug-12 02:29S 29°41' E 031°09'0 0.0
2016-Aug-12 01:29S 29°41' E 031°09'0 0.0
2016-Aug-12 00:17S 29°41' E 031°09'0 0.0
2016-Aug-11 23:17S 29°41' E 031°09'0 0.0
2016-Aug-11 22:29S 29°41' E 031°09'0 0.0
2016-Aug-11 21:29S 29°41' E 031°09'0 0.0
2016-Aug-11 20:29S 29°41' E 031°09'0 0.0
2016-Aug-11 19:29S 29°41' E 031°09'0 0.0
2016-Aug-11 18:29S 29°41' E 031°09'0 0.0
2016-Aug-11 17:29S 29°41' E 031°09'0 0.0
2016-Aug-11 16:29S 29°41' E 031°09'0 0.0
2016-Aug-11 15:32S 29°41' E 031°09'0 0.0
2016-Aug-11 14:29S 29°41' E 031°09'0 0.0
2016-Aug-11 13:29S 29°41' E 031°09'0 0.0
2016-Aug-11 12:29S 29°41' E 031°09'0 0.0
2016-Aug-11 11:29S 29°41' E 031°09'0 0.0
2016-Aug-11 10:29S 29°41' E 031°09'0 0.0
2016-Aug-11 09:29S 29°41' E 031°09'0 0.0
2016-Aug-11 08:29S 29°41' E 031°09'0 0.0
2016-Aug-11 07:29S 29°41' E 031°09'0 0.0
2016-Aug-11 06:29S 29°41' E 031°09'0 0.0
2016-Aug-11 05:29S 29°41' E 031°09'0 0.0
2016-Aug-11 04:29S 29°41' E 031°09'0 0.0
2016-Aug-11 03:29S 29°41' E 031°09'0 0.0
2016-Aug-11 02:29S 29°41' E 031°09'0 0.0
2016-Aug-11 01:23S 29°41' E 031°09'0 0.0
2016-Aug-11 00:29S 29°41' E 031°09'0 0.0
2016-Aug-10 23:29S 29°41' E 031°09'0 0.0
2016-Aug-10 22:29S 29°41' E 031°09'0 0.0
2016-Aug-10 21:29S 29°41' E 031°09'0 0.0
2016-Aug-10 20:23S 29°41' E 031°09'0 0.0
2016-Aug-10 19:29S 29°41' E 031°09'0 0.0
2016-Aug-10 18:29S 29°41' E 031°09'0 0.0
2016-Aug-10 17:29S 29°41' E 031°09'0 0.0
2016-Aug-10 16:29S 29°41' E 031°09'0 0.0
2016-Aug-10 15:29S 29°41' E 031°09'0 0.0
2016-Aug-10 14:17S 29°41' E 031°09'0 0.0
2016-Aug-10 13:29S 29°41' E 031°09'0 0.0
2016-Aug-10 12:29S 29°41' E 031°09'0 0.0
2016-Aug-10 11:32S 29°41' E 031°09'0 0.0
2016-Aug-10 10:29S 29°41' E 031°09'0 0.0
2016-Aug-10 09:32S 29°41' E 031°09'0 0.0
2016-Aug-10 08:29S 29°41' E 031°09'0 0.0
2016-Aug-10 07:29S 29°41' E 031°09'0 0.0
2016-Aug-10 06:29S 29°41' E 031°09'0 0.0
2016-Aug-09 08:23S 29°41' E 031°09'0 0.0
2016-Aug-09 07:32S 29°41' E 031°10'0 0.0
2016-Aug-09 04:32S 29°41' E 031°10'0 0.0
2016-Aug-09 03:32S 29°41' E 031°10'0 0.0
2016-Aug-09 02:32S 29°41' E 031°10'0 0.0
2016-Aug-09 01:32S 29°41' E 031°10'0 0.0
2016-Aug-09 00:32S 29°41' E 031°10'0 0.0
2016-Aug-08 23:32S 29°41' E 031°09'0 0.0
2016-Aug-08 22:32S 29°41' E 031°09'0 0.0
2016-Aug-08 21:32S 29°41' E 031°09'0 0.0
2016-Aug-08 20:32S 29°41' E 031°09'0 0.1
2016-Aug-08 19:32S 29°41' E 031°09'0 0.0
2016-Aug-08 18:32S 29°41' E 031°09'0 0.1
2016-Aug-08 17:32S 29°41' E 031°09'0 0.1
2016-Aug-08 16:32S 29°41' E 031°09'0 0.1
2016-Aug-08 15:32S 29°41' E 031°09'0 0.1
2016-Aug-08 14:32S 29°41' E 031°09'0 0.2
2016-Aug-08 13:32S 29°41' E 031°09'0 0.1
2016-Aug-08 12:32S 29°41' E 031°09'0 0.1
2016-Aug-08 11:32S 29°41' E 031°09'0 0.0
2016-Aug-08 10:32S 29°41' E 031°09'0 0.0
2016-Aug-08 09:32S 29°41' E 031°09'0 0.1
2016-Aug-08 08:32S 29°41' E 031°09'0 0.1
2016-Aug-08 07:32S 29°41' E 031°09'0 0.0
2016-Aug-08 06:29S 29°41' E 031°09'0 0.1
2016-Aug-08 05:32S 29°41' E 031°09'  
Track history (hours):
 
Tides and Currents Weather Stations Pressure Air Temp Water Temp Dewpoint Dewpoint Depression Visibility Wind Speed Wind Dir Waves Ship Positions

Blue Ridge Highway

Last reported at 2016-Aug-17 23:07 UTC. Time now 2016-Aug-24 13:45 UTC.
Position S 34°18' E 017°58'.

Length 180 m; draft 8.1 m.

Type: Cargo ship. MMSI: 355558000.

Date/timePositionNaut miles runAvg speedWind from/ knotsBaromVisibWave heightAir tempDewpointWater temp
2016-Aug-17 23:07S 34°18' E 017°58'  
2016-Aug-15 00:20S 30°22' E 030°55'1215.2
2016-Aug-14 23:34S 30°12' E 031°01'1515.3
2016-Aug-14 22:34S 29°56' E 031°04'5 4.4
2016-Aug-14 21:32S 29°52' E 031°02'0 0.0
2016-Aug-14 20:32S 29°52' E 031°02'0 0.0
2016-Aug-14 19:32S 29°52' E 031°02'0 0.0
2016-Aug-14 18:32S 29°52' E 031°02'0 0.0
2016-Aug-14 17:32S 29°52' E 031°02'0 0.0
2016-Aug-14 16:32S 29°52' E 031°02'0 0.0
2016-Aug-14 15:32S 29°52' E 031°02'0 0.0
2016-Aug-14 14:32S 29°52' E 031°02'0 0.0
2016-Aug-14 13:32S 29°52' E 031°02'0 0.0
2016-Aug-14 12:32S 29°52' E 031°02'0 0.0
2016-Aug-14 11:32S 29°52' E 031°02'0 0.0
2016-Aug-14 10:32S 29°52' E 031°02'0 0.0
2016-Aug-14 09:32S 29°52' E 031°02'1 1.0
2016-Aug-14 08:34S 29°52' E 031°03'3 3.1
2016-Aug-14 07:33S 29°50' E 031°06'5 4.6
2016-Aug-14 06:34S 29°48' E 031°10'4 2.2
2016-Aug-14 04:34S 29°44' E 031°12'3 3.3
2016-Aug-14 03:32S 29°41' E 031°09'0 0.2
2016-Aug-14 02:32S 29°41' E 031°09'0 0.1
2016-Aug-14 01:32S 29°41' E 031°09'0 0.0
2016-Aug-14 00:32S 29°41' E 031°09'0 0.0
2016-Aug-13 23:32S 29°41' E 031°09'0 0.0
2016-Aug-13 22:32S 29°41' E 031°09'0 0.0
2016-Aug-13 21:32S 29°41' E 031°09'0 0.0
2016-Aug-13 20:32S 29°41' E 031°09'0 0.0
2016-Aug-13 19:32S 29°41' E 031°09'0 0.0
2016-Aug-13 18:32S 29°41' E 031°09'0 0.1
2016-Aug-13 17:32S 29°41' E 031°09'0 0.0
2016-Aug-13 11:32S 29°41' E 031°09'0 0.1
2016-Aug-13 10:32S 29°41' E 031°09'0 0.0
2016-Aug-13 09:29S 29°41' E 031°09'0 0.0
2016-Aug-13 08:32S 29°41' E 031°09'0 0.0
2016-Aug-13 07:29S 29°41' E 031°09'0 0.0
2016-Aug-13 06:32S 29°41' E 031°09'0 0.0
2016-Aug-13 05:29S 29°41' E 031°09'0 0.0
2016-Aug-13 04:29S 29°41' E 031°09'0 0.0
2016-Aug-13 03:29S 29°41' E 031°09'0 0.0
2016-Aug-13 02:29S 29°41' E 031°09'0 0.0
2016-Aug-13 01:29S 29°41' E 031°09'0 0.0
2016-Aug-13 00:29S 29°41' E 031°09'0 0.0
2016-Aug-12 23:29S 29°41' E 031°09'0 0.0
2016-Aug-12 22:23S 29°41' E 031°09'0 0.0
2016-Aug-12 21:29S 29°41' E 031°09'0 0.0
2016-Aug-12 20:29S 29°41' E 031°09'0 0.0
2016-Aug-12 19:29S 29°41' E 031°09'0 0.0
2016-Aug-12 18:29S 29°41' E 031°09'0 0.0
2016-Aug-12 17:29S 29°41' E 031°09'0 0.0
2016-Aug-12 16:32S 29°41' E 031°09'0 0.0
2016-Aug-12 08:29S 29°41' E 031°09'0 0.0
2016-Aug-12 07:29S 29°41' E 031°09'0 0.0
2016-Aug-12 06:29S 29°41' E 031°09'0 0.0
2016-Aug-12 05:23S 29°41' E 031°09'0 0.0
2016-Aug-12 04:29S 29°41' E 031°09'0 0.0
2016-Aug-12 03:32S 29°41' E 031°09'0 0.0
2016-Aug-12 02:29S 29°41' E 031°09'0 0.0
2016-Aug-12 01:29S 29°41' E 031°09'0 0.0
2016-Aug-12 00:17S 29°41' E 031°09'0 0.0
2016-Aug-11 23:17S 29°41' E 031°09'0 0.0
2016-Aug-11 22:29S 29°41' E 031°09'0 0.0
2016-Aug-11 21:29S 29°41' E 031°09'0 0.0
2016-Aug-11 20:29S 29°41' E 031°09'0 0.0
2016-Aug-11 19:29S 29°41' E 031°09'0 0.0
2016-Aug-11 18:29S 29°41' E 031°09'0 0.0
2016-Aug-11 17:29S 29°41' E 031°09'0 0.0
2016-Aug-11 16:29S 29°41' E 031°09'0 0.0
2016-Aug-11 15:32S 29°41' E 031°09'0 0.0
2016-Aug-11 14:29S 29°41' E 031°09'0 0.0
2016-Aug-11 13:29S 29°41' E 031°09'0 0.0
2016-Aug-11 12:29S 29°41' E 031°09'0 0.0
2016-Aug-11 11:29S 29°41' E 031°09'0 0.0
2016-Aug-11 10:29S 29°41' E 031°09'0 0.0
2016-Aug-11 09:29S 29°41' E 031°09'0 0.0
2016-Aug-11 08:29S 29°41' E 031°09'0 0.0
2016-Aug-11 07:29S 29°41' E 031°09'0 0.0
2016-Aug-11 06:29S 29°41' E 031°09'0 0.0
2016-Aug-11 05:29S 29°41' E 031°09'0 0.0
2016-Aug-11 04:29S 29°41' E 031°09'0 0.0
2016-Aug-11 03:29S 29°41' E 031°09'0 0.0
2016-Aug-11 02:29S 29°41' E 031°09'0 0.0
2016-Aug-11 01:23S 29°41' E 031°09'0 0.0
2016-Aug-11 00:29S 29°41' E 031°09'0 0.0
2016-Aug-10 23:29S 29°41' E 031°09'0 0.0
2016-Aug-10 22:29S 29°41' E 031°09'0 0.0
2016-Aug-10 21:29S 29°41' E 031°09'0 0.0
2016-Aug-10 20:23S 29°41' E 031°09'0 0.0
2016-Aug-10 19:29S 29°41' E 031°09'0 0.0
2016-Aug-10 18:29S 29°41' E 031°09'0 0.0
2016-Aug-10 17:29S 29°41' E 031°09'0 0.0
2016-Aug-10 16:29S 29°41' E 031°09'0 0.0
2016-Aug-10 15:29S 29°41' E 031°09'0 0.0
2016-Aug-10 14:17S 29°41' E 031°09'0 0.0
2016-Aug-10 13:29S 29°41' E 031°09'0 0.0
2016-Aug-10 12:29S 29°41' E 031°09'0 0.0
2016-Aug-10 11:32S 29°41' E 031°09'0 0.0
2016-Aug-10 10:29S 29°41' E 031°09'0 0.0
2016-Aug-10 09:32S 29°41' E 031°09'0 0.0
2016-Aug-10 08:29S 29°41' E 031°09'0 0.0
2016-Aug-10 07:29S 29°41' E 031°09'0 0.0
2016-Aug-10 06:29S 29°41' E 031°09'0 0.0
2016-Aug-09 08:23S 29°41' E 031°09'0 0.0
2016-Aug-09 07:32S 29°41' E 031°10'0 0.0
2016-Aug-09 04:32S 29°41' E 031°10'0 0.0
2016-Aug-09 03:32S 29°41' E 031°10'0 0.0
2016-Aug-09 02:32S 29°41' E 031°10'0 0.0
2016-Aug-09 01:32S 29°41' E 031°10'0 0.0
2016-Aug-09 00:32S 29°41' E 031°10'0 0.0
2016-Aug-08 23:32S 29°41' E 031°09'0 0.0
2016-Aug-08 22:32S 29°41' E 031°09'0 0.0
2016-Aug-08 21:32S 29°41' E 031°09'0 0.0
2016-Aug-08 20:32S 29°41' E 031°09'0 0.1
2016-Aug-08 19:32S 29°41' E 031°09'0 0.0
2016-Aug-08 18:32S 29°41' E 031°09'0 0.1
2016-Aug-08 17:32S 29°41' E 031°09'0 0.1
2016-Aug-08 16:32S 29°41' E 031°09'0 0.1
2016-Aug-08 15:32S 29°41' E 031°09'0 0.1
2016-Aug-08 14:32S 29°41' E 031°09'0 0.2
2016-Aug-08 13:32S 29°41' E 031°09'0 0.1
2016-Aug-08 12:32S 29°41' E 031°09'0 0.1
2016-Aug-08 11:32S 29°41' E 031°09'0 0.0
2016-Aug-08 10:32S 29°41' E 031°09'0 0.0
2016-Aug-08 09:32S 29°41' E 031°09'0 0.1
2016-Aug-08 08:32S 29°41' E 031°09'0 0.1
2016-Aug-08 07:32S 29°41' E 031°09'0 0.0
2016-Aug-08 06:29S 29°41' E 031°09'0 0.1
2016-Aug-08 05:32S 29°41' E 031°09'  

Dump ship's entire track history